NCAR-RAP Real-Time Weather Data

Output produced by METARs form (12 May 2021  12:23 UTC)
found at http://weather.rap.ucar.edu/surface/
 
KATT 121151Z AUTO 36007G15KT 320V030 10SM OVC010 16/13 A3017 RMK AO2 SLP211 70025 T01610133 10178 20161 53021 $
KATT 121051Z AUTO 36007G15KT 290V020 10SM OVC009 16/13 A3013 RMK AO2 SLP199 T01610133 $
KATT 121048Z AUTO 01005G18KT 10SM OVC009 16/13 A3013 RMK AO2 $
KATT 120951Z AUTO VRB06KT 10SM OVC011 17/13 A3010 RMK AO2 SLP188 T01670133 $
KATT 120851Z AUTO 36007KT 10SM OVC011 16/13 A3009 RMK AO2 SLP182 T01610133 53002 $
KATT 120751Z AUTO 35005KT 10SM OVC011 17/14 A3007 RMK AO2 SLP176 T01670139 $
KATT 120718Z AUTO 35005KT 10SM OVC010 17/14 A3006 RMK AO2 CIG 008V013 T01720144 $
KATT 120651Z AUTO 35006KT 10SM OVC009 17/15 A3006 RMK AO2 CIG 007V012 SLP173 T01720150 $
KATT 120551Z AUTO 34005KT 10SM BKN012 OVC050 18/16 A3008 RMK AO2 SLP179 60020 T01780156 10189 20178 402440167 53010 $
KATT 120528Z AUTO 35004KT 10SM BKN010 OVC050 18/16 A3007 RMK AO2 CIG 009V013 T01780156 $
KATT 120458Z AUTO 35003KT 10SM FEW011 SCT016 BKN048 18/16 A3008 RMK AO2 T01780156 $
KATT 120451Z AUTO 36005KT 10SM SCT012 BKN017 BKN048 18/16 A3007 RMK AO2 SLP177 T01780156 $
KATT 120427Z AUTO 36004KT 10SM BKN016 18/16 A3008 RMK AO2 T01780161 $
KATT 120351Z AUTO 02005KT 10SM FEW015 18/16 A3005 RMK AO2 RAE16 SLP168 P0009 T01780156 $
KATT 120251Z AUTO 05004KT 1 1/4SM +RA BR SCT019 BKN041 OVC060 18/17 A3005 RMK AO2 RAB06 TSB36E51 SLP169 P0011 60011 T01830167 53034 $
KATT 120248Z AUTO 00000KT 1 1/2SM +TSRA BR SCT019 BKN048 OVC075 18/16 A3007 RMK AO2 RAB06 TSB36 P0006 $
KATT 120237Z AUTO 05005KT 7SM -TSRA SCT019 BKN043 OVC085 18/16 A3005 RMK AO2 RAB06 TSB36 P0001 T01830161 $
KATT 120230Z AUTO 00000KT 8SM -RA BKN018 OVC043 18/16 A3007 RMK AO2 RAB06 P0000 T01830161 $
KATT 120151Z AUTO 00000KT 10SM OVC041 19/16 A3000 RMK AO2 SLP151 T01890161 $
KATT 120051Z AUTO VRB03KT 10SM OVC038 18/16 A2998 RMK AO2 SLP148 T01830161 $
KATT 120033Z AUTO VRB03KT 10SM SCT011 OVC037 18/16 A2999 RMK AO2 T01830156 $
KATT 112351Z AUTO VRB05KT 10SM OVC011 18/16 A2995 RMK AO2 RAE27 SLP135 P0003 60005 T01830161 10244 20183 55001 $
KATT 112334Z AUTO VRB05KT 10SM BKN011 BKN037 OVC080 18/16 A2995 RMK AO2 RAE27 P0003 T01830161 $
KATT 112251Z AUTO 6SM -RA SCT036 BKN080 OVC095 19/16 A2994 RMK AO2 RAB18 PRESFR SLP134 P0002 T01890161 $
KATT 112151Z AUTO 04007KT 010V070 10SM FEW045 SCT065 SCT100 19/14 A2993 RMK AO2 PK WND 03029/2107 RAB08E23 SLP130 P0000 T01940144